Time;durP1;ratioP1;P1;durP2;ratioP2;P2;SDS_P1;SDS_P2;PMS_P1;PMS_P2;Temp;Humidity;BMP_temperature;BMP_pressure;BME280_temperature;BME280_humidity;BME280_pressure;Samples;Min_cycle;Max_cycle;Signal;HPM_P1;HPM_P2
2022/04/01 00:00:17;;;;;;;5.95;1.13;;;;;;;;;;6186623;23;20024;-87
2022/04/01 00:02:44;;;;;;;5.90;1.38;;;;;;;;;;6235835;23;20488;-87
2022/04/01 00:05:11;;;;;;;8.85;1.42;;;;;;;;;;6210538;23;20020;-88
2022/04/01 00:07:40;;;;;;;1.83;1.35;;;;;;;;;;6212164;23;20016;-87
2022/04/01 00:10:06;;;;;;;3.83;1.20;;;;;;;;;;6224301;23;20105;-87
2022/04/01 00:12:33;;;;;;;4.03;1.20;;;;;;;;;;6186627;23;20020;-87
2022/04/01 00:14:59;;;;;;;2.50;1.13;;;;;;;;;;6209889;23;20103;-87
2022/04/01 00:17:25;;;;;;;2.67;1.23;;;;;;;;;;6182867;23;20020;-86
2022/04/01 00:19:51;;;;;;;3.35;1.20;;;;;;;;;;6235495;23;20191;-87
2022/04/01 00:22:17;;;;;;;1.77;1.17;;;;;;;;;;6208960;23;20353;-87
2022/04/01 00:24:43;;;;;;;5.65;1.13;;;;;;;;;;6209231;23;20019;-87
2022/04/01 00:27:09;;;;;;;3.38;1.30;;;;;;;;;;6210108;23;20024;-86
2022/04/01 00:29:36;;;;;;;5.65;1.33;;;;;;;;;;6183392;23;20024;-87
2022/04/01 00:32:02;;;;;;;3.55;1.50;;;;;;;;;;6160195;23;20016;-86
2022/04/01 00:34:29;;;;;;;4.43;1.33;;;;;;;;;;6207767;23;20102;-86
2022/04/01 00:36:55;;;;;;;5.97;1.70;;;;;;;;;;6184020;23;20058;-88
2022/04/01 00:39:22;;;;;;;3.10;1.20;;;;;;;;;;6234386;23;20020;-87
2022/04/01 00:42:07;;;;;;;9.07;1.60;;;;;;;;;;6209978;23;20059;-87
2022/04/01 00:45:07;;;;;;;2.45;1.35;;;;;;;;;;6208565;23;20024;-86
2022/04/01 00:47:33;;;;;;;3.03;1.25;;;;;;;;;;6238143;23;20099;-87
2022/04/01 00:49:59;;;;;;;3.97;1.40;;;;;;;;;;6236615;23;20023;-87
2022/04/01 00:52:26;;;;;;;4.43;1.48;;;;;;;;;;6183402;23;20089;-86
2022/04/01 00:54:52;;;;;;;1.88;1.25;;;;;;;;;;6210097;23;20436;-87
2022/04/01 00:57:21;;;;;;;3.55;1.30;;;;;;;;;;6183091;23;20028;-86
2022/04/01 00:59:48;;;;;;;4.68;1.30;;;;;;;;;;6187023;23;20016;-87
2022/04/01 01:02:15;;;;;;;3.78;1.10;;;;;;;;;;6234244;23;20031;-86
2022/04/01 01:04:41;;;;;;;5.13;1.30;;;;;;;;;;6236773;23;20024;-86
2022/04/01 01:07:07;;;;;;;6.65;1.20;;;;;;;;;;6235119;23;20464;-86
2022/04/01 01:09:33;;;;;;;1.42;1.00;;;;;;;;;;6236629;23;20024;-86
2022/04/01 01:12:01;;;;;;;4.38;1.80;;;;;;;;;;6232670;23;20027;-88
2022/04/01 01:14:33;;;;;;;5.63;1.05;;;;;;;;;;6210026;23;20028;-87
2022/04/01 01:16:59;;;;;;;3.58;1.52;;;;;;;;;;6183172;23;20027;-86
2022/04/01 01:19:26;;;;;;;2.72;1.23;;;;;;;;;;6235570;23;20326;-87
2022/04/01 01:21:53;;;;;;;8.02;1.42;;;;;;;;;;6208335;23;20956;-87
2022/04/01 01:24:24;;;;;;;4.85;1.50;;;;;;;;;;6183220;23;20017;-87
2022/04/01 01:26:54;;;;;;;4.28;1.38;;;;;;;;;;6207231;23;20024;-86
2022/04/01 01:29:28;;;;;;;8.10;1.95;;;;;;;;;;6236182;23;20017;-87
2022/04/01 01:31:55;;;;;;;3.08;1.23;;;;;;;;;;6184329;23;20083;-86
2022/04/01 01:34:22;;;;;;;3.45;1.40;;;;;;;;;;6235701;23;20020;-86
2022/04/01 01:36:48;;;;;;;5.10;1.63;;;;;;;;;;6235551;23;20016;-86
2022/04/01 01:39:32;;;;;;;3.63;1.38;;;;;;;;;;6182391;23;20028;-86
2022/04/01 01:41:58;;;;;;;;;;;;;;;;;;6236796;23;20020;-86
2022/04/01 01:44:25;;;;;;;6.97;1.30;;;;;;;;;;6207506;23;19978;-85
2022/04/01 01:47:00;;;;;;;4.65;1.30;;;;;;;;;;6209972;23;20027;-86
2022/04/01 01:58:15;;;;;;;8.63;1.50;;;;;;;;;;6207485;23;20095;-86
2022/04/01 02:00:50;;;;;;;6.13;1.40;;;;;;;;;;6234659;23;20259;-86
2022/04/01 02:03:17;;;;;;;2.88;1.60;;;;;;;;;;6235373;23;20024;-86
2022/04/01 02:09:17;;;;;;;2.55;1.17;;;;;;;;;;6209495;23;20095;-87
2022/04/01 02:11:44;;;;;;;4.38;1.67;;;;;;;;;;6207009;23;20029;-86
2022/04/01 02:16:46;;;;;;;2.95;1.13;;;;;;;;;;6240954;23;20028;-87
2022/04/01 02:22:53;;;;;;;4.95;1.17;;;;;;;;;;6239856;23;20014;-87
2022/04/01 02:25:19;;;;;;;3.10;1.00;;;;;;;;;;6212626;23;20024;-87
2022/04/01 02:27:52;;;;;;;3.97;1.20;;;;;;;;;;6213346;23;20051;-88
2022/04/01 02:30:28;;;;;;;3.60;1.30;;;;;;;;;;6209732;23;20027;-87
2022/04/01 02:32:54;;;;;;;4.47;0.98;;;;;;;;;;6238007;23;20024;-87
2022/04/01 02:35:20;;;;;;;3.78;1.20;;;;;;;;;;6184608;23;20024;-87
2022/04/01 02:37:47;;;;;;;7.68;1.50;;;;;;;;;;6185671;23;20034;-86
2022/04/01 02:40:13;;;;;;;8.65;1.38;;;;;;;;;;6208843;23;20090;-86
2022/04/01 02:42:40;;;;;;;3.83;1.20;;;;;;;;;;6209693;23;20012;-85
2022/04/01 02:45:16;;;;;;;3.53;1.17;;;;;;;;;;6186682;23;20024;-87
2022/04/01 02:47:42;;;;;;;9.27;1.23;;;;;;;;;;6185629;23;20024;-87
2022/04/01 02:50:10;;;;;;;5.88;1.48;;;;;;;;;;6236373;23;20464;-87
2022/04/01 02:52:54;;;;;;;3.33;1.30;;;;;;;;;;6236740;23;20121;-87
2022/04/01 02:55:23;;;;;;;;;;;;;;;;;;6210966;23;20020;-86
2022/04/01 02:57:49;;;;;;;2.13;0.70;;;;;;;;;;6236256;23;19916;-86
2022/04/01 03:00:21;;;;;;;5.55;1.27;;;;;;;;;;6185654;23;20122;-86
2022/04/01 03:02:53;;;;;;;3.60;1.10;;;;;;;;;;6236079;23;20713;-87
2022/04/01 03:05:19;;;;;;;2.95;0.90;;;;;;;;;;6213290;23;20016;-86
2022/04/01 03:07:48;;;;;;;7.07;1.50;;;;;;;;;;6183323;23;20070;-87
2022/04/01 03:10:14;;;;;;;3.55;1.02;;;;;;;;;;6210247;23;20101;-86
2022/04/01 03:12:41;;;;;;;7.72;2.05;;;;;;;;;;6183683;23;20579;-87
2022/04/01 03:15:07;;;;;;;2.03;1.00;;;;;;;;;;6211159;23;20103;-87
2022/04/01 03:17:33;;;;;;;2.85;1.10;;;;;;;;;;6185207;23;20024;-86
2022/04/01 03:20:01;;;;;;;2.35;1.10;;;;;;;;;;6210948;23;20020;-86
2022/04/01 03:22:48;;;;;;;4.60;2.10;;;;;;;;;;6190806;23;20016;-87
2022/04/01 03:25:36;;;;;;;3.33;1.60;;;;;;;;;;6190584;23;20083;-87
2022/04/01 03:28:02;;;;;;;3.22;1.02;;;;;;;;;;6184538;23;20087;-86
2022/04/01 03:40:30;;;;;;;3.92;1.25;;;;;;;;;;6238121;23;20113;-85
2022/04/01 03:42:57;;;;;;;9.50;1.98;;;;;;;;;;6235742;23;20066;-86
2022/04/01 03:45:23;;;;;;;6.45;1.13;;;;;;;;;;6184229;23;20020;-85
2022/04/01 03:48:00;;;;;;;6.28;1.15;;;;;;;;;;6209044;23;20024;-87
2022/04/01 03:50:35;;;;;;;7.68;1.60;;;;;;;;;;6182199;23;20023;-86
2022/04/01 03:53:29;;;;;;;4.03;1.63;;;;;;;;;;6186523;23;20050;-85
2022/04/01 03:56:06;;;;;;;4.05;1.10;;;;;;;;;;6210574;23;20031;-86
2022/04/01 03:58:59;;;;;;;4.35;1.40;;;;;;;;;;6210870;23;20472;-85
2022/04/01 04:01:25;;;;;;;2.40;0.90;;;;;;;;;;6235365;23;20020;-87
2022/04/01 04:03:51;;;;;;;4.32;1.10;;;;;;;;;;6235918;23;20081;-86
2022/04/01 04:06:29;;;;;;;3.67;1.20;;;;;;;;;;6208610;23;20290;-86
2022/04/01 04:08:57;;;;;;;2.00;1.13;;;;;;;;;;6209350;23;20518;-87
2022/04/01 04:11:28;;;;;;;5.55;1.55;;;;;;;;;;6183100;23;20024;-85
2022/04/01 04:13:58;;;;;;;6.38;1.75;;;;;;;;;;6209524;23;20020;-87
2022/04/01 04:16:25;;;;;;;5.97;1.20;;;;;;;;;;6211412;23;20031;-87
2022/04/01 04:19:04;;;;;;;3.92;1.35;;;;;;;;;;6182733;23;20051;-87
2022/04/01 04:21:31;;;;;;;2.92;1.20;;;;;;;;;;6209173;23;20020;-87
2022/04/01 04:24:01;;;;;;;3.47;1.45;;;;;;;;;;6241714;23;20016;-87
2022/04/01 04:26:27;;;;;;;4.97;0.95;;;;;;;;;;6221782;23;20031;-87
2022/04/01 04:28:56;;;;;;;6.85;1.15;;;;;;;;;;6194167;23;20016;-87
2022/04/01 04:31:26;;;;;;;5.00;1.38;;;;;;;;;;6238664;23;20445;-87
2022/04/01 04:33:55;;;;;;;3.67;1.10;;;;;;;;;;6209763;23;20510;-85
2022/04/01 04:36:38;;;;;;;4.78;1.27;;;;;;;;;;6209334;23;20027;-86
2022/04/01 04:39:05;;;;;;;5.72;1.40;;;;;;;;;;6209916;23;20037;-86
2022/04/01 04:41:33;;;;;;;2.58;1.30;;;;;;;;;;6234908;23;20027;-87
2022/04/01 04:44:00;;;;;;;4.90;1.40;;;;;;;;;;6209194;23;20028;-87
2022/04/01 04:46:32;;;;;;;5.43;1.50;;;;;;;;;;6233110;23;20024;-86
2022/04/01 04:48:59;;;;;;;3.30;2.22;;;;;;;;;;6209930;23;20069;-86
2022/04/01 04:51:27;;;;;;;2.63;1.13;;;;;;;;;;6207001;23;20024;-86
2022/04/01 04:54:30;;;;;;;2.75;1.30;;;;;;;;;;6240511;23;20023;-86
2022/04/01 04:56:57;;;;;;;3.17;1.10;;;;;;;;;;6218779;23;20020;-87
2022/04/01 04:59:24;;;;;;;2.40;1.13;;;;;;;;;;6233649;23;20020;-86
2022/04/01 05:05:04;;;;;;;3.00;1.00;;;;;;;;;;6210348;23;20082;-87
2022/04/01 05:07:30;;;;;;;3.10;1.45;;;;;;;;;;6208485;23;20020;-87
2022/04/01 05:10:22;;;;;;;4.95;1.30;;;;;;;;;;6208415;23;20023;-87
2022/04/01 05:16:21;;;;;;;2.17;1.10;;;;;;;;;;6142625;23;20022;-88
2022/04/01 05:19:08;;;;;;;1.55;0.90;;;;;;;;;;6117265;23;20022;-88
2022/04/01 05:21:39;;;;;;;7.63;1.50;;;;;;;;;;6181695;23;20047;-87
2022/04/01 05:25:08;;;;;;;3.70;1.05;;;;;;;;;;6211447;23;20016;-87
2022/04/01 05:27:38;;;;;;;2.42;1.08;;;;;;;;;;6172495;23;20099;-88
2022/04/01 05:33:22;;;;;;;2.03;1.10;;;;;;;;;;6144971;23;20025;-88
2022/04/01 05:35:51;;;;;;;7.75;1.58;;;;;;;;;;6170068;23;20021;-87
2022/04/01 05:38:21;;;;;;;2.35;1.13;;;;;;;;;;6162834;23;20054;-88
2022/04/01 05:40:51;;;;;;;2.45;1.10;;;;;;;;;;6233490;23;20024;-87
2022/04/01 05:43:17;;;;;;;3.10;1.15;;;;;;;;;;6204871;23;20024;-88
2022/04/01 05:45:44;;;;;;;2.78;1.10;;;;;;;;;;6181169;23;20012;-88
2022/04/01 05:48:11;;;;;;;4.13;1.70;;;;;;;;;;6205076;23;20020;-87
2022/04/01 05:50:37;;;;;;;3.72;1.08;;;;;;;;;;6233460;23;20099;-87
2022/04/01 05:53:05;;;;;;;2.88;1.10;;;;;;;;;;6207437;23;20031;-86
2022/04/01 06:05:44;;;;;;;4.22;1.15;;;;;;;;;;6177720;23;20024;-88
2022/04/01 06:08:36;;;;;;;3.35;1.10;;;;;;;;;;6171042;23;20479;-86
2022/04/01 06:11:08;;;;;;;5.50;1.55;;;;;;;;;;6154208;23;20094;-90
2022/04/01 06:14:05;;;;;;;4.63;1.30;;;;;;;;;;6155534;23;20503;-89
2022/04/01 06:16:40;;;;;;;1.90;1.13;;;;;;;;;;6205372;23;20400;-89
2022/04/01 06:19:06;;;;;;;6.03;1.58;;;;;;;;;;6155914;23;20140;-87
2022/04/01 06:21:37;;;;;;;4.78;1.73;;;;;;;;;;6192602;23;20326;-88
2022/04/01 06:24:08;;;;;;;5.03;1.50;;;;;;;;;;6181350;23;20465;-89
2022/04/01 06:26:38;;;;;;;1.98;1.27;;;;;;;;;;6208063;23;20012;-88
2022/04/01 06:29:15;;;;;;;1.88;0.90;;;;;;;;;;6158217;23;20480;-88
2022/04/01 06:31:45;;;;;;;3.00;1.00;;;;;;;;;;6183392;23;20028;-90
2022/04/01 06:44:22;;;;;;;;;;;;;;;;;;6147322;23;20068;-87
2022/04/01 06:47:20;;;;;;;5.50;0.85;;;;;;;;;;6113008;23;20372;-85
2022/04/01 06:49:46;;;;;;;2.22;1.00;;;;;;;;;;6144568;23;20154;-87
2022/04/01 06:52:12;;;;;;;2.95;0.90;;;;;;;;;;6092643;23;20450;-87
2022/04/01 06:54:39;;;;;;;4.55;1.48;;;;;;;;;;6119653;23;20025;-86
2022/04/01 06:57:05;;;;;;;3.67;1.30;;;;;;;;;;6091215;23;20466;-85
2022/04/01 06:59:34;;;;;;;2.63;1.02;;;;;;;;;;6118587;23;20818;-85
2022/04/01 07:02:00;;;;;;;4.05;1.38;;;;;;;;;;6119638;23;20339;-86
2022/04/01 07:04:26;;;;;;;1.92;1.10;;;;;;;;;;6145353;23;20024;-85
2022/04/01 07:06:52;;;;;;;4.65;1.38;;;;;;;;;;6123908;23;20525;-85
2022/04/01 07:09:18;;;;;;;5.00;1.77;;;;;;;;;;6093109;23;20060;-85
2022/04/01 07:11:44;;;;;;;5.72;1.10;;;;;;;;;;6120063;23;20103;-86
2022/04/01 07:14:10;;;;;;;1.73;0.90;;;;;;;;;;6116043;23;20018;-86
2022/04/01 07:16:36;;;;;;;3.08;1.10;;;;;;;;;;6121040;23;20060;-86
2022/04/01 07:19:03;;;;;;;2.78;1.30;;;;;;;;;;6143630;23;20049;-86
2022/04/01 07:21:29;;;;;;;2.53;1.20;;;;;;;;;;6122545;23;20017;-86
2022/04/01 07:23:55;;;;;;;2.55;1.00;;;;;;;;;;6097379;23;20022;-86
2022/04/01 07:26:22;;;;;;;4.55;1.10;;;;;;;;;;6118826;23;20069;-85
2022/04/01 07:28:49;;;;;;;1.60;0.95;;;;;;;;;;6146606;23;20379;-86
2022/04/01 07:34:02;;;;;;;1.95;1.20;;;;;;;;;;6091143;23;20021;-87
2022/04/01 07:36:28;;;;;;;2.65;1.05;;;;;;;;;;6097058;23;20022;-87
2022/04/01 07:38:54;;;;;;;5.80;1.60;;;;;;;;;;6137926;23;20021;-87
2022/04/01 07:44:43;;;;;;;2.42;1.17;;;;;;;;;;6161985;23;20016;-86
2022/04/01 07:47:09;;;;;;;3.17;1.27;;;;;;;;;;6104899;23;20446;-86
2022/04/01 07:49:40;;;;;;;4.47;1.30;;;;;;;;;;6145058;23;20018;-85
2022/04/01 07:52:08;;;;;;;2.42;1.20;;;;;;;;;;6118759;23;20109;-86
2022/04/01 07:54:35;;;;;;;3.67;1.40;;;;;;;;;;6117711;23;20026;-86
2022/04/01 07:57:02;;;;;;;2.08;1.40;;;;;;;;;;6119542;23;20108;-87
2022/04/01 07:59:28;;;;;;;2.80;1.13;;;;;;;;;;6119580;23;20438;-87
2022/04/01 08:01:54;;;;;;;2.20;1.10;;;;;;;;;;6096154;23;20033;-86
2022/04/01 08:04:20;;;;;;;2.78;0.90;;;;;;;;;;6121450;23;20017;-85
2022/04/01 08:06:46;;;;;;;1.73;1.10;;;;;;;;;;6118368;23;20028;-85
2022/04/01 08:09:12;;;;;;;2.80;0.98;;;;;;;;;;6120995;23;20100;-85
2022/04/01 08:11:38;;;;;;;3.05;1.15;;;;;;;;;;6116769;23;20032;-88
2022/04/01 08:14:04;;;;;;;4.63;1.50;;;;;;;;;;6094768;23;20021;-86
2022/04/01 08:16:30;;;;;;;3.85;1.10;;;;;;;;;;6141320;23;20419;-86
2022/04/01 08:18:57;;;;;;;1.67;1.30;;;;;;;;;;6145239;23;20018;-86
2022/04/01 08:21:24;;;;;;;3.53;1.50;;;;;;;;;;6103459;23;20069;-86
2022/04/01 08:23:50;;;;;;;3.90;1.73;;;;;;;;;;6093784;23;20459;-87
2022/04/01 08:26:16;;;;;;;5.25;1.67;;;;;;;;;;6093404;23;20467;-87
2022/04/01 08:28:50;;;;;;;2.17;1.40;;;;;;;;;;6089473;23;20063;-88
2022/04/01 08:31:16;;;;;;;5.85;1.42;;;;;;;;;;6093240;23;20028;-87
2022/04/01 08:33:46;;;;;;;2.30;1.30;;;;;;;;;;6089270;23;20018;-89
2022/04/01 08:36:14;;;;;;;4.80;1.55;;;;;;;;;;6095012;23;20911;-87
2022/04/01 08:38:40;;;;;;;3.65;1.60;;;;;;;;;;6115981;23;20033;-87
2022/04/01 08:41:06;;;;;;;3.55;1.75;;;;;;;;;;6127685;23;20172;-88
2022/04/01 08:43:34;;;;;;;2.90;1.40;;;;;;;;;;6185245;23;20084;-88
2022/04/01 08:46:31;;;;;;;3.25;1.50;;;3.80;99.90;;;;;;6195516;23;20457;-89
2022/04/01 08:55:47;;;;;;;4.18;1.45;;;;;;;;;;6207419;23;20012;-88
2022/04/01 08:58:16;;;;;;;2.92;1.25;;;;;;;;;;6157719;23;20374;-88
2022/04/01 09:10:21;;;;;;;1.92;1.30;;;;;;;;;;6086973;23;20025;-88
2022/04/01 09:12:51;;;;;;;3.75;1.38;;;;;;;;;;6089318;23;20433;-88
2022/04/01 09:15:19;;;;;;;4.90;1.40;;;;;;;;;;6165979;23;20389;-87
2022/04/01 09:21:12;;;;;;;4.32;1.63;;;;;;;;;;6120221;23;20025;-89
2022/04/01 09:27:03;;;;;;;3.88;1.60;;;;;;;;;;6106722;23;20029;-89
2022/04/01 09:29:32;;;;;;;1.60;1.00;;;;;;;;;;6157871;23;20078;-89
2022/04/01 09:35:49;;;;;;;2.05;1.50;;;;;;;;;;6191184;23;20031;-86
2022/04/01 09:38:18;;;;;;;2.60;1.52;;;;;;;;;;6178232;23;20450;-88
2022/04/01 09:41:12;;;;;;;;;;;;;;;;;;;;;
2022/04/01 09:54:52;;;;;;;2.58;1.30;;;;;;;;;;6205462;23;19910;-88
2022/04/01 10:01:21;;;;;;;2.75;0.80;;;;;;;;;;6203825;23;20383;-89
2022/04/01 10:04:25;;;;;;;1.25;0.90;;;;;;;;;;6176162;23;20315;-90
2022/04/01 10:06:55;;;;;;;2.00;1.00;;;;;;;;;;6150414;23;20020;-89
2022/04/01 10:09:24;;;;;;;2.50;1.05;;;;;;;;;;6154023;23;20354;-89
2022/04/01 10:18:02;;;;;;;4.03;1.10;;;;;;;;;;6235770;23;20027;-88
2022/04/01 10:20:38;;;;;;;1.88;1.15;;;;;;;;;;6208202;23;20016;-90
2022/04/01 10:26:36;;;;;;;1.75;1.00;;;;;;;;;;6222861;22;20078;-88
2022/04/01 10:29:11;;;;;;;3.30;1.42;;;;;;;;;;6184865;23;20024;-89
2022/04/01 11:16:41;;;;;;;3.15;1.40;;;;;;;;;;6190890;23;20039;-89
2022/04/01 11:33:11;;;;;;;2.83;1.17;;;;;;;;;;6204814;23;20024;-89
2022/04/01 11:36:08;;;;;;;6.82;1.80;;;;;;;;;;6154514;23;20027;-89
2022/04/01 11:39:27;;;;;;;7.05;1.70;;;;;;;;;;6109693;23;20116;-90
2022/04/01 11:42:11;;;;;;;5.50;1.60;;;;;;;;;;6113039;23;20021;-89
2022/04/01 11:48:34;;;;;;;3.80;1.35;;;;;;;;;;6111410;23;20048;-88
2022/04/01 11:51:35;;;;;;;3.33;1.67;;;;;;;;;;6087935;23;20029;-91
2022/04/01 11:54:11;;;;;;;4.82;1.70;;;;;;;;;;6087598;23;20040;-91
2022/04/01 11:59:53;;;;;;;2.55;1.60;;;;;;;;;;6115318;23;20034;-87
2022/04/01 12:02:29;;;;;;;5.72;1.75;;;;;;;;;;6063697;23;20706;-87
2022/04/01 12:05:07;;;;;;;6.13;2.00;;;;;;;;;;6115179;23;20104;-85
2022/04/01 12:10:34;;;;;;;7.80;1.70;;;;;;;;;;6160338;23;20098;-87
2022/04/01 12:13:11;;;;;;;6.30;1.67;;;;;;;;;;6208238;23;20080;-88
2022/04/01 12:15:42;;;;;;;3.60;1.50;;;;;;;;;;6176758;23;20020;-89
2022/04/01 12:18:19;;;;;;;1.55;1.10;;;;;;;;;;6192338;23;20029;-89
2022/04/01 12:20:52;;;;;;;4.40;2.10;;;;;;;;;;6177875;23;20044;-86
2022/04/01 12:23:22;;;;;;;2.92;1.80;;;;;;;;;;6176498;23;20345;-87
2022/04/01 12:25:49;;;;;;;3.92;2.05;;;;;;;;;;6205584;23;20016;-85
2022/04/01 12:28:16;;;;;;;6.38;2.55;;;;;;;;;;6203598;23;20342;-86
2022/04/01 12:30:49;;;;;;;7.07;2.05;;;;;;;;;;6205587;23;20126;-89
2022/04/01 12:33:20;;;;;;;8.25;1.77;;;;;;;;;;6203334;23;20050;-89
2022/04/01 12:35:56;;;;;;;3.65;1.40;;;;;;;;;;6180054;23;20104;-89
2022/04/01 12:38:46;;;;;;;7.25;1.45;;;;;;;;;;6179129;23;20021;-90
2022/04/01 12:41:17;;;;;;;3.90;1.73;;;;;;;;;;6177917;23;20021;-89
2022/04/01 12:43:56;;;;;;;3.90;1.63;;;;;;;;;;6177536;23;20074;-90
2022/04/01 12:46:36;;;;;;;9.10;2.80;;;;;;;;;;6178047;23;20453;-89
2022/04/01 12:49:15;;;;;;;3.05;1.27;;;;;;;;;;6179692;23;20319;-88
2022/04/01 12:51:49;;;;;;;2.70;1.58;;;;;;;;;;6173709;23;20024;-85
2022/04/01 12:54:23;;;;;;;2.75;1.85;;;;;;;;;;6205995;23;20021;-87
2022/04/01 12:56:51;;;;;;;5.07;2.05;;;;;;;;;;6206099;23;20020;-88
2022/04/01 12:59:39;;;;;;;4.20;1.75;;;;;;;;;;6213007;23;20016;-86
2022/04/01 13:02:09;;;;;;;2.78;1.70;;;;;;;;;;6225803;23;20048;-87
2022/04/01 13:04:49;;;;;;;4.00;1.70;;;;;;;;;;6205533;23;20470;-86
2022/04/01 13:07:38;;;;;;;7.47;2.40;;;;;;;;;;6178874;23;20086;-87
2022/04/01 13:10:07;;;;;;;4.80;1.70;;;;;;;;;;6201009;23;20104;-86
2022/04/01 13:12:36;;;;;;;4.03;1.60;;;;;;;;;;6176130;23;20028;-86
2022/04/01 13:15:40;;;;;;;6.85;1.23;;;;;;;;;;6203611;23;20016;-87
2022/04/01 13:18:32;;;;;;;3.00;1.35;;;;;;;;;;6189305;23;20056;-88
2022/04/01 13:21:24;;;;;;;2.35;1.30;;;;;;;;;;6208174;23;20107;-88
2022/04/01 13:23:50;;;;;;;4.60;1.45;;;;;;;;;;6176586;23;20021;-89
2022/04/01 13:26:20;;;;;;;7.07;1.60;;;;;;;;;;6203228;23;20063;-90
2022/04/01 13:28:46;;;;;;;3.53;1.55;;;;;;;;;;6202876;23;20096;-89
2022/04/01 13:31:13;;;;;;;4.22;1.55;;;;;;;;;;6176568;23;20091;-88
2022/04/01 13:33:39;;;;;;;3.38;1.30;;;;;;;;;;6152106;23;20433;-88
2022/04/01 13:36:12;;;;;;;3.08;1.17;;;;;;;;;;6150713;23;20017;-88
2022/04/01 13:38:38;;;;;;;6.50;2.17;;;;;;;;;;6178636;23;20086;-89
2022/04/01 13:41:14;;;;;;;6.15;1.50;;;;;;;;;;6175462;23;20266;-87
2022/04/01 13:43:40;;;;;;;4.93;1.60;;;;;;;;;;6205146;23;20544;-90
2022/04/01 13:46:18;;;;;;;2.67;1.38;;;;;;;;;;6174330;23;20402;-88
2022/04/01 13:48:50;;;;;;;4.88;1.40;;;;;;;;;;6205137;23;20083;-90
2022/04/01 13:51:16;;;;;;;4.90;1.65;;;;;;;;;;6200842;23;20032;-88
2022/04/01 13:53:45;;;;;;;3.03;1.08;;;;;;;;;;6177088;23;20338;-89
2022/04/01 13:56:12;;;;;;;4.75;1.50;;;;;;;;;;6152059;23;20345;-89
2022/04/01 13:58:38;;;;;;;4.45;1.50;;;;;;;;;;6176954;23;20273;-89
2022/04/01 14:01:13;;;;;;;5.18;1.63;;;;;;;;;;6151051;23;20025;-89
2022/04/01 14:03:49;;;;;;;4.85;1.30;;;;;;;;;;6202175;23;20029;-90
2022/04/01 14:06:15;;;;;;;3.78;1.58;;;;;;;;;;6205615;23;20031;-89
2022/04/01 14:08:48;;;;;;;3.40;1.65;;;;;;;;;;6202270;23;20097;-89
2022/04/01 14:11:15;;;;;;;4.55;1.63;;;;;;;;;;6180155;23;20025;-89
2022/04/01 14:13:41;;;;;;;5.10;1.80;;;;;;;;;;6204258;23;20076;-89
2022/04/01 14:16:07;;;;;;;3.42;1.70;;;;;;;;;;6157173;23;20020;-88
2022/04/01 14:18:33;;;;;;;6.25;1.48;;;;;;;;;;6226580;23;20039;-89
2022/04/01 14:24:13;;;;;;;3.47;1.73;;;;;;;;;;6211983;23;20066;-90
2022/04/01 14:26:39;;;;;;;2.30;1.40;;;;;;;;;;6244904;23;20049;-89
2022/04/01 14:42:16;;;;;;;5.00;1.77;;;;;;;;;;6235549;23;20020;-87
2022/04/01 14:45:07;;;;;;;4.28;1.35;;;;;;;;;;6161515;23;20035;-88
2022/04/01 14:48:09;;;;;;;5.43;1.70;;;;;;;;;;6207978;23;20026;-90
2022/04/01 14:57:50;;;;;;;5.43;1.70;;;;;;;;;;6239606;23;20070;-88
2022/04/01 15:00:20;;;;;;;4.07;1.60;;;;;;;;;;6237618;23;20369;-88
2022/04/01 15:02:58;;;;;;;4.47;1.40;;;;;;;;;;6213994;23;20008;-89
2022/04/01 15:05:43;;;;;;;4.00;2.00;;;;;;;;;;6250699;23;20016;-88
2022/04/01 15:10:44;;;;;;;2.33;1.40;;;;;;;;;;6130052;23;20342;-88
2022/04/01 15:17:04;;;;;;;3.95;1.60;;;;;;;;;;6124869;23;20020;-87
2022/04/01 15:19:34;;;;;;;5.60;1.40;;;;;;;;;;6095742;23;20024;-89
2022/04/01 15:22:10;;;;;;;;;;;;;;;;;;;;;
2022/04/01 15:24:56;;;;;;;3.72;1.50;;;;;;;;;;6119366;23;20021;-88
2022/04/01 15:27:35;;;;;;;4.22;1.38;;;;;;;;;;6091807;23;20454;-88
2022/04/01 15:30:16;;;;;;;3.38;1.40;;;;;;;;;;6117808;23;20097;-88
2022/04/01 15:32:43;;;;;;;1.95;1.70;;;;;;;;;;6116345;23;20029;-85
2022/04/01 15:35:09;;;;;;;3.05;1.48;;;;;;;;;;6067343;23;20108;-88
2022/04/01 15:37:37;;;;;;;4.85;1.40;;;;;;;;;;6090534;23;20025;-87
2022/04/01 15:43:27;;;;;;;3.45;1.42;;;;;;;;;;6117218;23;20021;-88
2022/04/01 15:46:17;;;;;;;2.95;1.33;;;;;;;;;;6094730;23;20328;-89
2022/04/01 15:49:08;;;;;;;2.40;1.70;;;;;;;;;;6076258;23;20157;-88
2022/04/01 15:51:39;;;;;;;3.20;1.50;;;;;;;;;;6093571;23;20029;-88
2022/04/01 15:54:12;;;;;;;3.42;1.77;;;;;;;;;;6079653;23;20075;-88
2022/04/01 15:56:56;;;;;;;3.40;1.73;;;;;;;;;;6073734;23;20069;-89
2022/04/01 15:59:40;;;;;;;6.72;1.67;;;;;;;;;;6058260;23;20022;-89
2022/04/01 16:02:08;;;;;;;2.05;1.25;;;;;;;;;;6008439;23;20030;-90
2022/04/01 16:05:12;;;;;;;4.70;1.88;;;;;;;;;;6058508;23;20023;-84
2022/04/01 16:07:40;;;;;;;4.90;1.98;;;;;;;;;;6054976;23;20758;-86
2022/04/01 16:10:12;;;;;;;4.40;1.75;;;;;;;;;;6029391;23;20029;-87
2022/04/01 16:12:57;;;;;;;2.50;1.33;;;;;;;;;;6051934;23;20559;-91
2022/04/01 16:15:31;;;;;;;10.80;1.85;;;;;;;;;;6004544;23;20031;-91
2022/04/01 16:17:57;;;;;;;5.03;1.45;;;;;;;;;;6053561;23;20551;-88
2022/04/01 16:20:33;;;;;;;3.63;1.95;;;;;;;;;;6004969;23;20171;-88
2022/04/01 16:23:16;;;;;;;5.00;1.98;;;;;;;;;;6054829;23;20460;-86
2022/04/01 16:25:55;;;;;;;5.68;2.25;;;;;;;;;;6052193;23;20033;-88
2022/04/01 16:28:21;;;;;;;3.85;1.40;;;;;;;;;;6005942;23;20031;-86
2022/04/01 16:30:50;;;;;;;5.15;2.00;;;;;;;;;;6066264;23;20053;-87
2022/04/01 16:33:19;;;;;;;3.38;1.90;;;;;;;;;;6089214;23;20389;-85
2022/04/01 16:36:17;;;;;;;6.15;1.90;;;;;;;;;;6028831;23;20033;-87
2022/04/01 16:38:58;;;;;;;4.03;2.10;;;;;;;;;;6018063;23;20077;-85
2022/04/01 16:41:24;;;;;;;4.15;1.73;;;;;;;;;;6030422;23;20074;-86
2022/04/01 16:46:31;;;;;;;3.47;1.77;;;;;;;;;;6237465;23;20356;-86
2022/04/01 16:48:57;;;;;;;2.20;1.50;;;;;;;;;;6238537;22;20371;-88
2022/04/01 16:51:39;;;;;;;7.80;2.00;;;;;;;;;;6216168;22;20114;-87
2022/04/01 16:54:08;;;;;;;4.30;1.80;;;;;;;;;;6269050;22;20093;-88
2022/04/01 16:56:38;;;;;;;2.88;1.77;;;;;;;;;;6270771;22;20178;-87
2022/04/01 16:59:13;;;;;;;4.43;1.73;;;;;;;;;;6242753;22;20114;-87
2022/04/01 17:01:55;;;;;;;7.78;2.30;;;;;;;;;;6218037;22;20023;-87
2022/04/01 17:04:21;;;;;;;3.92;1.60;;;;;;;;;;6269227;22;20098;-86
2022/04/01 17:12:32;;;;;;;5.68;2.40;;;;;;;;;;6240196;22;20024;-87
2022/04/01 17:14:58;;;;;;;2.88;1.60;;;;;;;;;;6269793;22;20023;-86
2022/04/01 17:17:25;;;;;;;3.53;2.30;;;;;;;;;;6241360;22;20035;-85
2022/04/01 17:19:52;;;;;;;2.67;1.80;;;;;;;;;;6268355;22;20031;-85
2022/04/01 17:22:28;;;;;;;4.63;2.28;;;;;;;;;;6265177;22;20027;-87
2022/04/01 17:24:55;;;;;;;2.55;1.83;;;;;;;;;;6267594;22;20451;-86
2022/04/01 17:27:25;;;;;;;4.05;2.10;;;;;;;;;;6239891;22;20028;-85
2022/04/01 17:29:51;;;;;;;4.75;2.00;;;;;;;;;;6269415;22;20016;-87
2022/04/01 17:32:25;;;;;;;4.15;1.88;;;;;;;;;;6214275;22;20023;-86
2022/04/01 17:34:53;;;;;;;3.17;1.42;;;;;;;;;;6239669;22;20023;-86
2022/04/01 17:37:20;;;;;;;4.38;2.08;;;;;;;;;;6213934;22;20510;-86
2022/04/01 17:39:49;;;;;;;4.95;1.75;;;;;;;;;;6268145;22;20413;-86
2022/04/01 17:42:18;;;;;;;5.85;2.08;;;;;;;;;;6238433;22;20073;-86
2022/04/01 17:44:44;;;;;;;8.85;1.83;;;;;;;;;;6268270;22;20081;-87
2022/04/01 17:47:10;;;;;;;3.20;1.70;;;;;;;;;;6266920;22;20073;-86
2022/04/01 17:49:39;;;;;;;3.38;1.90;;;;;;;;;;6191222;22;20027;-86
2022/04/01 17:52:05;;;;;;;2.55;2.30;;;;;;;;;;6216483;22;20020;-88
2022/04/01 17:54:33;;;;;;;5.82;2.60;;;;;;;;;;6269049;22;20094;-87
2022/04/01 17:56:59;;;;;;;2.00;1.60;;;;;;;;;;6216329;22;20022;-87
2022/04/01 17:59:27;;;;;;;2.90;1.90;;;;;;;;;;6215123;22;20439;-87
2022/04/01 18:01:55;;;;;;;7.70;2.35;;;;;;;;;;6241207;22;20026;-86
2022/04/01 18:04:22;;;;;;;4.40;1.90;;;;;;;;;;6239244;22;20103;-88
2022/04/01 18:06:52;;;;;;;4.13;1.80;;;;;;;;;;6239212;22;20055;-86
2022/04/01 18:09:29;;;;;;;3.47;1.70;;;;;;;;;;6210710;22;20380;-85
2022/04/01 18:12:05;;;;;;;2.42;1.65;;;;;;;;;;6213785;22;20059;-87
2022/04/01 18:14:50;;;;;;;4.25;2.22;;;;;;;;;;6213723;22;20024;-87
2022/04/01 18:17:22;;;;;;;3.13;1.90;;;;;;;;;;6246998;22;20042;-87
2022/04/01 18:20:20;;;;;;;3.33;1.80;;;;;;;;;;6280752;22;20024;-87
2022/04/01 18:23:04;;;;;;;2.20;2.00;;;;;;;;;;6269724;22;20341;-87
2022/04/01 18:25:39;;;;;;;6.78;1.75;;;;;;;;;;6266187;22;20398;-87
2022/04/01 18:28:07;;;;;;;2.63;1.73;;;;;;;;;;6268555;22;20016;-87
2022/04/01 18:30:35;;;;;;;3.20;1.92;;;;;;;;;;6265014;22;20067;-86
2022/04/01 18:33:05;;;;;;;2.88;2.00;;;;;;;;;;6267401;22;20058;-87
2022/04/01 18:38:25;;;;;;;6.50;2.90;;;;;;;;;;6237748;23;20016;-88
2022/04/01 18:41:07;;;;;;;8.45;2.25;;;;;;;;;;6234696;23;20150;-88
2022/04/01 18:43:35;;;;;;;7.45;2.15;;;;;;;;;;6215266;22;20080;-87
2022/04/01 18:46:17;;;;;;;3.28;2.05;;;;;;;;;;6265546;22;20047;-88
2022/04/01 18:48:47;;;;;;;4.72;1.80;;;;;;;;;;6265251;22;20390;-87
2022/04/01 18:51:21;;;;;;;6.43;1.90;;;;;;;;;;6241998;22;20023;-88
2022/04/01 18:54:00;;;;;;;3.75;2.05;;;;;;;;;;6239654;22;20027;-88
2022/04/01 18:56:27;;;;;;;7.75;1.73;;;;;;;;;;6270332;22;20024;-88
2022/04/01 18:59:05;;;;;;;3.28;2.33;;;;;;;;;;6269338;22;20793;-88
2022/04/01 19:01:33;;;;;;;5.40;2.45;;;;;;;;;;6242618;22;20028;-88
2022/04/01 19:04:00;;;;;;;4.85;2.30;;;;;;;;;;6238969;22;20099;-88